• Join FlightAware (Why Join?)
  • Login
  • US Flag 
06:48AM EDT


 

Airport Tracker/Info


-or-


 

Live Flight TrackerFlight Track Log ✈ FLG3956 ✈ 19-Apr-2013 ✈ KIAD - KDTW

Flight Track Log - Related Links

Times and Time Zones

All times are in EDT time to prevent confusion due to time zone crossing. See the FLG3956 flight status page for this flight to view local times or setup timezone preferences in your user account.

Time Position Orientation Groundspeed Altitude Reporting Facility
EDT Latitude Longitude Course Direction KTS MPH feet Rate Location/Type
09:12PM 39.0142 -77.5444 293° West 206 237 4,300  Level Washington Center
09:13PM 39.0825 -77.5783 339° North 273 314 6,700 2,640 Climbing Washington Center
09:14PM 39.2886 -77.5415 344° North  Level FlightAware Approximate
09:14PM 39.1672 -77.6236 337° Northwest 287 330 9,600  Level Washington Center
09:15PM 39.3782 -77.5751 344° North  Level FlightAware Approximate
09:15PM 39.2497 -77.6742 335° Northwest 307 353 11,100  Level Washington Center
09:16PM 39.4563 -77.6086 288° West  Level FlightAware Approximate
09:16PM 39.3364 -77.7303 333° Northwest 324 373 13,100  Level Washington Center
09:17PM 39.4856 -77.7233 293° West  Level FlightAware Approximate
09:17PM 39.4269 -77.7892 333° Northwest 345 397 14,400  Level Washington Center
09:18PM 39.5217 -77.8514 333° Northwest 365 420 16,000 1,560 Climbing Washington Center
09:19PM 39.5656 -77.9550 299° West 341 392 17,600 1,380 Climbing Washington Center
09:21PM 39.6442 -78.2025 292° West 331 381 20,600 1,200 Climbing Cleveland Center
09:22PM 39.6778 -78.3172 291° West 336 387 21,600 1,140 Climbing Cleveland Center
09:23PM 39.7111 -78.4297 291° West 341 392 22,900 900 Climbing Cleveland Center
09:24PM 39.7444 -78.5447 291° West 341 392 23,500 540 Climbing Cleveland Center
09:25PM 39.7800 -78.6653 291° West 346 398 24,000 420 Climbing Cleveland Center
09:26PM 39.8069 -78.7753 288° West 346 398 24,400 480 Climbing Cleveland Center
09:27PM 39.8486 -78.9147 291° West 369 425 25,000 540 Climbing Cleveland Center
09:28PM 39.8836 -79.0303 292° West 375 432 25,500 480 Climbing Cleveland Center
09:29PM 39.9206 -79.1567 291° West 375 432 26,000 480 Climbing Cleveland Center
09:30PM 39.9783 -79.2828 301° West 386 444 26,500 480 Climbing Cleveland Center
09:31PM 40.0422 -79.4061 304° West 399 459 27,000 480 Climbing Cleveland Center
09:32PM 40.1061 -79.5325 303° West 411 473 27,500 480 Climbing Cleveland Center
09:33PM 40.1678 -79.6594 302° West 411 473 28,000 540 Climbing Cleveland Center
09:34PM 40.2311 -79.7864 303° West 411 473 28,600 480 Climbing Cleveland Center
09:35PM 40.2944 -79.9136 303° West 416 479 29,000 540 Climbing Cleveland Center
09:36PM 40.3619 -80.0600 301° West 423 487 29,700 480 Climbing Cleveland Center
09:37PM 40.4272 -80.1931 303° West 423 487 30,000 120 Climbing Cleveland Center
09:38PM 40.4942 -80.3264 303° West 423 487 30,000  Level Cleveland Center
09:39PM 40.5592 -80.4575 303° West 428 493 30,000  Level Cleveland Center
09:40PM 40.6156 -80.5778 302° West 440 506 30,000  Level Cleveland Center
09:41PM 40.6883 -80.7200 304° West 440 506 30,000  Level Cleveland Center
09:42PM 40.7486 -80.8489 302° West 428 493 30,000  Level Cleveland Center
09:43PM 40.8086 -80.9808 301° West 423 487 30,000  Level Cleveland Center
09:44PM 40.8644 -81.1019 301° West 423 487 30,000  Level Cleveland Center
09:45PM 40.9261 -81.2344 302° West 423 487 30,000  Level Cleveland Center
09:46PM 40.9942 -81.3808 302° West 429 494 30,000 -780 Level Cleveland Center
09:47PM 41.0556 -81.5139 301° West 423 487 28,500 -1,500 Descending Cleveland Center
09:48PM 41.1192 -81.6469 302° West 428 493 27,000 -1,560 Descending Cleveland Center
09:49PM 41.1764 -81.7639 303° West 408 470 25,400 -1,500 Descending Cleveland Center
09:50PM 41.2292 -81.8808 301° West 390 449 24,000 -720 Descending Cleveland Center
09:51PM 41.2822 -81.9950 302° West 383 441 24,000 -360 Level Cleveland Center
09:52PM 41.3369 -82.1125 302° West 378 435 23,300 -1,200 Descending Cleveland Center
09:53PM 41.3897 -82.2161 304° West 378 435 21,600 -1,800 Descending Cleveland Center
09:54PM 41.4506 -82.3200 308° West 365 420 19,800 -1,920 Descending Cleveland Center
09:55PM 41.5156 -82.4300 308° West 360 414 17,800 -1,920 Descending Cleveland Center
09:56PM 41.5744 -82.5317 308° West 345 397 16,000 -1,920 Descending Cleveland Center
09:57PM 41.6150 -82.5939 311° West 339 390 14,700 -1,800 Descending Cleveland Center
09:57PM 41.6331 -82.6278 305° West 345 397 14,200 -1,740 Descending Cleveland Center
09:58PM 41.6575 -82.6675 309° West 329 379 13,300 -1,620 Descending Cleveland Center
09:58PM 41.6817 -82.7100 307° West 340 391 12,600 -1,200 Descending Cleveland Center
09:59PM 41.7200 -82.7753 308° West 316 364 12,000 -600 Descending Cleveland Center
09:59PM 41.7406 -82.7983 320° Northwest 329 379 12,000  Level Cleveland Center
10:00PM 41.7772 -82.8414 319° Northwest 316 364 12,000 60 Level Cleveland Center
10:00PM 41.8056 -82.8786 316° Northwest 319 367 12,100  Climbing Cleveland Center
10:01PM 41.8444 -82.9217 320° Northwest 321 369 12,000  Descending Cleveland Center
10:01PM 41.8728 -82.9564 318° Northwest 319 367 12,100  Climbing Cleveland Center
10:02PM 41.9056 -82.9936 320° Northwest 324 373 12,000 -120 Descending Cleveland Center
10:02PM 41.9400 -83.0369 317° Northwest 319 367 12,000  Level Cleveland Center
10:03PM 41.9786 -83.0831 318° Northwest 282 325 12,000 60 Level Cleveland Center
10:03PM 42.0008 -83.1092 319° Northwest 312 359 12,100  Climbing Cleveland Center
10:04PM 42.0333 -83.1494 317° Northwest 289 333 12,000 -300 Descending Cleveland Center
10:04PM 42.0619 -83.1786 323° Northwest 296 341 11,800 -900 Descending Cleveland Center
10:05PM 42.1033 -83.1917 347° North 293 337 11,100 -1,020 Descending Cleveland Center
10:05PM 42.1386 -83.2014 348° North 277 319 10,800 -900 Descending Cleveland Center
10:06PM 42.1911 -83.1867 12° North 309 356 10,100 -1,020 Descending Cleveland Center
10:06PM 42.2206 -83.1711 21° North 277 319 9,800 -1,380 Descending Cleveland Center
10:07PM 42.2797 -83.1369 23° Northeast 299 344 8,600 -1,740 Descending Cleveland Center
10:08PM 42.3469 -83.1061 19° North 277 319 7,200 -1,500 Descending Cleveland Center
10:09PM 42.3856 -83.1553 317° Northwest 195 224 5,900 -1,500 Descending Cleveland Center
10:10PM 42.3633 -83.2136 243° Southwest 176 203 4,200 -1,320 Descending Cleveland Center
10:11PM 42.3250 -83.2569 220° Southwest 150 173 3,100 -900 Descending Cleveland Center
10:12PM 42.2931 -83.2808 209° Southwest 108 124 2,400 -720 Descending Cleveland Center
10:13PM 42.2697 -83.2994 211° Southwest 114 131 1,800 -660 Descending Cleveland Center
10:14PM 42.2419 -83.3206 209° Southwest 114 131 1,200 -600 Descending Cleveland Center